createdAt,value
2023-01-25T00:01:54.093Z,6.39
2023-01-25T00:04:21.788Z,6.40
2023-01-25T00:06:49.167Z,6.41
2023-01-25T00:09:16.703Z,6.37
2023-01-25T00:11:44.457Z,6.30
2023-01-25T00:14:15.177Z,6.30
2023-01-25T00:16:42.659Z,6.30
2023-01-25T00:19:10.690Z,6.29
2023-01-25T00:21:38.125Z,6.30
2023-01-25T00:24:06.031Z,6.29
2023-01-25T00:26:34.666Z,6.29
2023-01-25T00:29:01.961Z,6.28
2023-01-25T00:31:34.590Z,6.28
2023-01-25T00:34:24.602Z,6.23
2023-01-25T00:37:07.062Z,6.25
2023-01-25T00:39:33.723Z,6.22
2023-01-25T00:42:00.329Z,6.25
2023-01-25T00:44:26.966Z,6.22
2023-01-25T00:46:53.609Z,6.18
2023-01-25T00:49:22.178Z,6.20
2023-01-25T00:51:49.600Z,6.20
2023-01-25T00:54:16.523Z,6.19
2023-01-25T00:56:43.261Z,6.15
2023-01-25T00:59:13.955Z,6.13
2023-01-25T01:01:42.112Z,6.13
2023-01-25T01:04:09.246Z,6.16
2023-01-25T01:06:39.917Z,6.13
2023-01-25T01:09:11.364Z,6.13
2023-01-25T01:11:38.083Z,6.11
2023-01-25T01:14:04.956Z,6.06
2023-01-25T01:16:32.055Z,6.02
2023-01-25T01:18:58.700Z,6.03
2023-01-25T01:21:25.381Z,6.06
2023-01-25T01:23:53.656Z,6.06
2023-01-25T01:26:20.224Z,6.06
2023-01-25T01:28:47.329Z,6.02
2023-01-25T01:31:20.142Z,6.01
2023-01-25T01:33:51.746Z,5.98
2023-01-25T01:36:19.979Z,5.95
2023-01-25T01:38:47.116Z,5.94
2023-01-25T01:41:15.198Z,5.91
2023-01-25T01:43:42.384Z,5.91
2023-01-25T01:46:14.878Z,5.85
2023-01-25T01:49:02.712Z,5.84
2023-01-25T01:51:57.580Z,5.79
2023-01-25T01:54:36.384Z,5.78
2023-01-25T01:57:12.589Z,5.74
2023-01-25T01:59:54.574Z,5.71
2023-01-25T02:02:24.268Z,5.75
2023-01-25T02:04:53.902Z,5.74
2023-01-25T02:07:34.990Z,5.75
2023-01-25T02:10:04.751Z,5.75
2023-01-25T02:12:31.942Z,5.70
2023-01-25T02:14:58.535Z,5.68
2023-01-25T02:17:32.128Z,5.68
2023-01-25T02:20:07.818Z,5.64
2023-01-25T02:23:00.617Z,5.63
2023-01-25T02:25:28.266Z,5.60
2023-01-25T02:28:00.804Z,5.63
2023-01-25T02:30:28.156Z,5.64
2023-01-25T02:32:54.812Z,5.61
2023-01-25T02:35:37.332Z,5.57
2023-01-25T02:38:05.889Z,5.58
2023-01-25T02:40:40.993Z,5.63
2023-01-25T02:43:07.676Z,5.64
2023-01-25T02:45:34.349Z,5.64
2023-01-25T02:48:00.935Z,5.65
2023-01-25T02:50:27.503Z,5.65
2023-01-25T02:52:54.145Z,5.65
2023-01-25T02:55:20.737Z,5.65
2023-01-25T02:57:47.331Z,5.65
2023-01-25T03:00:14.118Z,5.63
2023-01-25T03:02:40.796Z,5.63
2023-01-25T03:05:07.911Z,5.63
2023-01-25T03:07:34.645Z,5.61
2023-01-25T03:10:01.290Z,5.60
2023-01-25T03:12:27.866Z,5.60
2023-01-25T03:14:54.428Z,5.60
2023-01-25T03:17:21.490Z,5.64
2023-01-25T03:19:48.075Z,5.65
2023-01-25T03:22:14.640Z,5.65
2023-01-25T03:24:41.287Z,5.68
2023-01-25T03:27:10.692Z,5.67
2023-01-25T03:29:37.819Z,5.67
2023-01-25T03:32:04.676Z,5.68
2023-01-25T03:34:31.299Z,5.68
2023-01-25T03:36:57.897Z,5.68
2023-01-25T03:39:24.521Z,5.65
2023-01-25T03:41:51.100Z,5.64
2023-01-25T03:44:17.651Z,5.65
2023-01-25T03:46:44.292Z,5.65
2023-01-25T03:49:10.983Z,5.64
2023-01-25T03:51:37.703Z,5.65
2023-01-25T03:54:04.989Z,5.61
2023-01-25T03:56:31.767Z,5.61
2023-01-25T03:58:58.330Z,5.63
2023-01-25T04:01:25.192Z,5.61
2023-01-25T04:03:51.819Z,5.60
2023-01-25T04:06:18.405Z,5.61
2023-01-25T04:08:45.019Z,5.60
2023-01-25T04:11:11.989Z,5.57
2023-01-25T04:13:39.998Z,5.58
2023-01-25T04:16:12.283Z,5.60
2023-01-25T04:18:40.143Z,5.58
2023-01-25T04:21:06.830Z,5.61
2023-01-25T04:23:33.476Z,5.54
2023-01-25T04:26:03.345Z,5.50
2023-01-25T04:28:29.975Z,5.54
2023-01-25T04:30:57.614Z,5.53
2023-01-25T04:33:25.006Z,5.53
2023-01-25T04:35:51.763Z,5.50
2023-01-25T04:38:18.659Z,5.47
2023-01-25T04:40:45.724Z,5.44
2023-01-25T04:43:16.488Z,5.44
2023-01-25T04:45:43.336Z,5.42
2023-01-25T04:48:12.044Z,5.40
2023-01-25T04:50:39.937Z,5.39
2023-01-25T04:53:08.028Z,5.39
2023-01-25T04:55:35.159Z,5.35
2023-01-25T04:58:02.559Z,5.36
2023-01-25T05:00:31.184Z,5.39
2023-01-25T05:02:58.192Z,5.37
2023-01-25T05:05:24.813Z,5.36
2023-01-25T05:07:51.405Z,5.40
2023-01-25T05:10:17.979Z,5.40
2023-01-25T05:12:44.628Z,5.39
2023-01-25T05:15:11.971Z,5.40
2023-01-25T05:17:38.701Z,5.39
2023-01-25T05:20:05.603Z,5.42
2023-01-25T05:22:32.477Z,5.40
2023-01-25T05:24:59.361Z,5.33
2023-01-25T05:27:26.214Z,5.32
2023-01-25T05:29:53.233Z,5.30
2023-01-25T05:32:22.097Z,5.33
2023-01-25T05:34:49.080Z,5.37
2023-01-25T05:37:18.643Z,5.39
2023-01-25T05:39:45.448Z,5.44
2023-01-25T05:42:13.912Z,5.40
2023-01-25T05:44:40.958Z,5.40
2023-01-25T05:47:09.686Z,5.36
2023-01-25T05:49:36.295Z,5.33
2023-01-25T05:52:02.856Z,5.36
2023-01-25T05:54:29.409Z,5.37
2023-01-25T05:56:56.009Z,5.39
2023-01-25T05:59:22.573Z,5.32
2023-01-25T06:01:49.199Z,5.32
2023-01-25T06:04:16.497Z,5.27
2023-01-25T06:06:43.599Z,5.27
2023-01-25T06:09:13.998Z,5.30
2023-01-25T06:11:44.952Z,5.32
2023-01-25T06:14:11.738Z,5.33
2023-01-25T06:16:38.434Z,5.29
2023-01-25T06:19:06.714Z,5.30
2023-01-25T06:21:36.993Z,5.30
2023-01-25T06:24:04.958Z,5.29
2023-01-25T06:26:31.944Z,5.30
2023-01-25T06:28:58.526Z,5.33
2023-01-25T06:31:25.283Z,5.35
2023-01-25T06:33:52.806Z,5.35
2023-01-25T06:36:21.507Z,5.32
2023-01-25T06:38:50.773Z,5.33
2023-01-25T06:41:17.941Z,5.35
2023-01-25T06:43:44.648Z,5.35
2023-01-25T06:46:14.446Z,5.36
2023-01-25T06:48:43.109Z,5.35
2023-01-25T06:51:14.609Z,5.36
2023-01-25T06:53:43.564Z,5.37
2023-01-25T06:56:12.002Z,5.42
2023-01-25T06:58:39.991Z,5.44
2023-01-25T07:01:19.842Z,5.46
2023-01-25T07:03:51.069Z,5.48
2023-01-25T07:06:18.665Z,5.53
2023-01-25T07:08:46.268Z,5.54
2023-01-25T07:11:14.129Z,5.53
2023-01-25T07:13:42.615Z,5.54
2023-01-25T07:16:13.041Z,5.57
2023-01-25T07:18:40.516Z,5.64
2023-01-25T07:21:18.606Z,5.65
2023-01-25T07:23:45.380Z,5.70
2023-01-25T07:26:18.343Z,5.77
2023-01-25T07:28:46.127Z,5.78
2023-01-25T07:31:13.076Z,5.82
2023-01-25T07:33:39.804Z,5.87
2023-01-25T07:36:08.431Z,5.85
2023-01-25T07:38:35.903Z,5.88
2023-01-25T07:41:03.679Z,5.95
2023-01-25T07:43:30.322Z,5.98
2023-01-25T07:46:05.933Z,6.02
2023-01-25T07:48:33.269Z,6.08
2023-01-25T07:51:24.034Z,6.09
2023-01-25T07:53:55.584Z,6.11
2023-01-25T07:56:33.184Z,6.08
2023-01-25T07:59:02.621Z,6.09
2023-01-25T08:01:32.250Z,6.13
2023-01-25T08:03:58.954Z,6.13
2023-01-25T08:06:31.144Z,6.18
2023-01-25T08:08:59.125Z,6.19
2023-01-25T08:11:28.269Z,6.22
2023-01-25T08:13:55.634Z,6.26
2023-01-25T08:16:25.068Z,6.30
2023-01-25T08:18:55.021Z,6.34
2023-01-25T08:21:24.351Z,6.37
2023-01-25T08:23:51.731Z,6.37
2023-01-25T08:26:18.631Z,6.43
2023-01-25T08:28:45.270Z,6.50
2023-01-25T08:31:21.386Z,6.56
2023-01-25T08:33:48.553Z,6.56
2023-01-25T08:36:18.225Z,6.58
2023-01-25T08:38:46.640Z,6.60
2023-01-25T08:41:18.542Z,6.64
2023-01-25T08:43:46.226Z,6.64
2023-01-25T08:46:15.142Z,6.67
2023-01-25T08:48:41.791Z,6.66
2023-01-25T08:51:11.630Z,6.60
2023-01-25T08:53:38.290Z,6.60
2023-01-25T08:56:10.449Z,6.61
2023-01-25T08:58:39.375Z,6.66
2023-01-25T09:01:08.127Z,6.66
2023-01-25T09:03:36.712Z,6.67
2023-01-25T09:06:03.643Z,6.64
2023-01-25T09:08:30.199Z,6.61
2023-01-25T09:11:02.535Z,6.63
2023-01-25T09:13:29.420Z,6.57
2023-01-25T09:16:04.083Z,6.58
2023-01-25T09:18:31.826Z,6.61
2023-01-25T09:20:58.681Z,6.67
2023-01-25T09:23:25.594Z,6.67
2023-01-25T09:25:59.953Z,6.67
2023-01-25T09:28:30.010Z,6.75
2023-01-25T09:31:20.656Z,6.77
2023-01-25T09:33:48.655Z,6.81
2023-01-25T09:36:15.742Z,6.83
2023-01-25T09:38:42.393Z,6.84
2023-01-25T09:41:32.176Z,6.88
2023-01-25T09:44:14.755Z,6.91
2023-01-25T09:46:55.155Z,6.92
2023-01-25T09:49:29.502Z,6.94
2023-01-25T09:52:04.199Z,6.95
2023-01-25T09:54:42.317Z,6.91
2023-01-25T09:57:21.199Z,6.88
2023-01-25T09:59:50.618Z,6.89
2023-01-25T10:02:46.511Z,6.95
2023-01-25T10:05:19.099Z,7.01
2023-01-25T10:08:06.991Z,6.99
2023-01-25T10:10:38.536Z,6.91
2023-01-25T10:13:11.414Z,6.91
2023-01-25T10:15:47.224Z,6.88
2023-01-25T10:18:26.565Z,6.92
2023-01-25T10:21:04.032Z,6.92
2023-01-25T10:24:00.512Z,6.94
2023-01-25T10:26:29.932Z,6.89
2023-01-25T10:28:56.447Z,6.92
2023-01-25T10:31:49.212Z,6.95
2023-01-25T10:34:41.381Z,6.91
2023-01-25T10:37:18.844Z,6.91
2023-01-25T10:40:14.326Z,6.94
2023-01-25T10:42:46.750Z,6.94
2023-01-25T10:45:15.123Z,6.91
2023-01-25T10:47:50.413Z,6.94
2023-01-25T10:50:43.204Z,6.95
2023-01-25T10:53:33.162Z,6.95
2023-01-25T10:56:01.683Z,7.02
2023-01-25T10:59:02.625Z,7.01
2023-01-25T11:01:32.666Z,6.91
2023-01-25T11:04:01.274Z,6.89
2023-01-25T11:06:39.323Z,6.87
2023-01-25T11:09:21.086Z,6.92
2023-01-25T11:11:56.592Z,6.89
2023-01-25T11:14:28.864Z,6.84
2023-01-25T11:16:57.174Z,6.85
2023-01-25T11:19:37.841Z,6.92
2023-01-25T11:22:22.089Z,6.88
2023-01-25T11:24:48.733Z,6.85
2023-01-25T11:27:27.997Z,6.75
2023-01-25T11:30:18.886Z,6.67
2023-01-25T11:32:45.671Z,6.71
2023-01-25T11:35:18.476Z,6.78
2023-01-25T11:37:57.041Z,6.85
2023-01-25T11:40:32.086Z,6.84
2023-01-25T11:43:01.375Z,6.91
2023-01-25T11:45:27.912Z,6.96
2023-01-25T11:48:25.539Z,7.02
2023-01-25T11:51:27.435Z,7.12
2023-01-25T11:54:14.303Z,7.05
2023-01-25T11:56:59.522Z,7.09
2023-01-25T11:59:35.332Z,7.09
2023-01-25T12:02:26.436Z,7.08
2023-01-25T12:05:21.890Z,7.02
2023-01-25T12:08:20.159Z,6.95
2023-01-25T12:11:17.735Z,6.96
2023-01-25T12:13:56.689Z,6.98
2023-01-25T12:16:35.406Z,7.06
2023-01-25T12:19:28.856Z,7.05
2023-01-25T12:22:07.405Z,7.04
2023-01-25T12:24:49.226Z,6.99
2023-01-25T12:27:21.491Z,7.02
2023-01-25T12:29:56.832Z,6.99
2023-01-25T12:32:40.336Z,6.94
2023-01-25T12:35:12.698Z,6.94
2023-01-25T12:37:43.779Z,7.01
2023-01-25T12:40:16.003Z,7.06
2023-01-25T12:42:55.856Z,7.11
2023-01-25T12:45:29.065Z,7.08
2023-01-25T12:48:37.411Z,7.06
2023-01-25T12:51:04.276Z,7.02
2023-01-25T12:53:39.504Z,7.09
2023-01-25T12:56:09.010Z,7.16
2023-01-25T12:58:50.161Z,7.12
2023-01-25T13:01:26.769Z,7.08
2023-01-25T13:04:23.231Z,7.08
2023-01-25T13:07:03.800Z,7.08
2023-01-25T13:09:53.417Z,7.12
2023-01-25T13:12:20.850Z,7.13
2023-01-25T13:14:47.519Z,7.08
2023-01-25T13:17:26.418Z,7.04
2023-01-25T13:19:53.907Z,7.09
2023-01-25T13:22:45.242Z,7.18
2023-01-25T13:25:17.723Z,7.22
2023-01-25T13:27:44.392Z,7.15
2023-01-25T13:30:16.755Z,7.06
2023-01-25T13:33:07.286Z,7.05
2023-01-25T13:35:40.065Z,6.99
2023-01-25T13:38:09.373Z,7.01
2023-01-25T13:40:38.307Z,7.11
2023-01-25T13:43:22.606Z,7.05
2023-01-25T13:45:52.539Z,7.12
2023-01-25T13:48:25.633Z,7.09
2023-01-25T13:50:56.877Z,6.98
2023-01-25T13:53:35.501Z,6.96
2023-01-25T13:56:03.067Z,7.01
2023-01-25T13:58:45.417Z,6.95
2023-01-25T14:01:18.648Z,6.98
2023-01-25T14:03:49.105Z,7.02
2023-01-25T14:06:22.969Z,6.96
2023-01-25T14:08:51.173Z,6.94
2023-01-25T14:11:22.887Z,6.88
2023-01-25T14:14:15.462Z,6.85
2023-01-25T14:16:42.209Z,6.89
2023-01-25T14:19:26.282Z,7.02
2023-01-25T14:22:11.670Z,7.04
2023-01-25T14:24:38.598Z,7.09
2023-01-25T14:27:06.106Z,7.13
2023-01-25T14:29:35.806Z,7.15
2023-01-25T14:32:03.733Z,7.16
2023-01-25T14:34:30.700Z,7.06
2023-01-25T14:37:16.814Z,7.02
2023-01-25T14:39:44.330Z,6.98
2023-01-25T14:42:11.365Z,6.89
2023-01-25T14:44:38.210Z,6.91
2023-01-25T14:47:29.907Z,6.91
2023-01-25T14:50:32.620Z,6.92
2023-01-25T14:53:07.418Z,6.95
2023-01-25T14:55:34.954Z,6.96
2023-01-25T14:58:02.887Z,6.87
2023-01-25T15:00:34.498Z,6.81
2023-01-25T15:03:15.440Z,6.83
2023-01-25T15:05:46.061Z,6.81
2023-01-25T15:08:12.619Z,6.78
2023-01-25T15:10:52.167Z,6.77
2023-01-25T15:13:24.845Z,6.84
2023-01-25T15:15:51.579Z,6.84
2023-01-25T15:18:46.210Z,6.88
2023-01-25T15:21:27.074Z,6.95
2023-01-25T15:23:56.149Z,6.98
2023-01-25T15:26:27.124Z,7.02
2023-01-25T15:28:56.954Z,7.06
2023-01-25T15:31:27.862Z,7.12
2023-01-25T15:33:59.081Z,7.08
2023-01-25T15:36:26.242Z,7.08
2023-01-25T15:38:52.855Z,7.12
2023-01-25T15:41:19.886Z,7.15
2023-01-25T15:43:47.878Z,7.19
2023-01-25T15:46:27.331Z,7.20
2023-01-25T15:48:54.530Z,7.15
2023-01-25T15:51:21.948Z,7.16
2023-01-25T15:53:48.602Z,7.08
2023-01-25T15:56:21.569Z,6.98
2023-01-25T15:58:52.082Z,6.95
2023-01-25T16:01:19.928Z,6.80
2023-01-25T16:03:46.668Z,6.78
2023-01-25T16:06:35.670Z,6.85
2023-01-25T16:09:24.181Z,6.91
2023-01-25T16:11:53.950Z,6.95
2023-01-25T16:14:21.240Z,6.99
2023-01-25T16:16:50.828Z,7.08
2023-01-25T16:19:20.433Z,7.06
2023-01-25T16:21:47.041Z,7.09
2023-01-25T16:24:14.412Z,6.99
2023-01-25T16:26:49.391Z,6.98
2023-01-25T16:29:16.131Z,6.92
2023-01-25T16:31:42.839Z,6.98
2023-01-25T16:34:09.622Z,6.98
2023-01-25T16:36:38.502Z,7.01
2023-01-25T16:39:15.696Z,6.95
2023-01-25T16:41:42.293Z,6.96
2023-01-25T16:44:08.911Z,6.95
2023-01-25T16:46:35.576Z,6.99
2023-01-25T16:49:05.128Z,7.05
2023-01-25T16:51:32.923Z,7.12
2023-01-25T16:53:59.835Z,7.16
2023-01-25T16:56:27.841Z,7.20
2023-01-25T16:58:56.451Z,7.23
2023-01-25T17:01:24.869Z,7.22
2023-01-25T17:03:52.077Z,7.23
2023-01-25T17:06:21.396Z,7.23
2023-01-25T17:08:49.136Z,7.25
2023-01-25T17:11:18.831Z,7.33
2023-01-25T17:13:54.283Z,7.25
2023-01-25T17:16:24.021Z,7.26
2023-01-25T17:18:55.086Z,7.27
2023-01-25T17:21:22.655Z,7.27
2023-01-25T17:23:49.704Z,7.19
2023-01-25T17:26:18.996Z,7.05
2023-01-25T17:28:46.105Z,7.02
2023-01-25T17:31:22.808Z,6.98
2023-01-25T17:33:50.194Z,7.02
2023-01-25T17:36:16.856Z,7.02
2023-01-25T17:38:44.245Z,6.95
2023-01-25T17:41:14.498Z,6.94
2023-01-25T17:43:41.339Z,6.92
2023-01-25T17:46:23.031Z,6.92
2023-01-25T17:48:49.709Z,6.92
2023-01-25T17:51:16.366Z,6.94
2023-01-25T17:53:43.006Z,6.94
2023-01-25T17:56:11.247Z,6.94
2023-01-25T17:58:39.382Z,6.95
2023-01-25T18:01:26.550Z,6.96
2023-01-25T18:03:54.410Z,6.96
2023-01-25T18:06:25.080Z,6.95
2023-01-25T18:08:59.932Z,6.94
2023-01-25T18:11:30.900Z,6.96
2023-01-25T18:14:00.866Z,6.96
2023-01-25T18:16:30.366Z,6.98
2023-01-25T18:18:58.704Z,6.96
2023-01-25T18:21:27.488Z,6.94
2023-01-25T18:24:01.147Z,6.95
2023-01-25T18:26:30.774Z,6.95
2023-01-25T18:29:34.499Z,6.98
2023-01-25T18:32:01.324Z,6.89
2023-01-25T18:34:27.925Z,6.87
2023-01-25T18:36:58.389Z,6.83
2023-01-25T18:39:26.073Z,6.84
2023-01-25T18:41:52.678Z,6.83
2023-01-25T18:44:19.909Z,6.85
2023-01-25T18:46:47.992Z,6.83
2023-01-25T18:49:14.681Z,6.87
2023-01-25T18:52:01.906Z,6.80
2023-01-25T18:54:28.169Z,6.81
2023-01-25T18:56:55.508Z,6.81
2023-01-25T18:59:22.101Z,6.80
2023-01-25T19:01:48.745Z,6.77
2023-01-25T19:04:15.658Z,6.73
2023-01-25T19:06:42.257Z,6.73
2023-01-25T19:09:08.891Z,6.70
2023-01-25T19:11:35.418Z,6.66
2023-01-25T19:14:01.992Z,6.71
2023-01-25T19:16:28.880Z,6.74
2023-01-25T19:18:55.618Z,6.66
2023-01-25T19:21:24.172Z,6.68
2023-01-25T19:23:52.380Z,6.73
2023-01-25T19:26:22.100Z,6.74
2023-01-25T19:28:48.773Z,6.78
2023-01-25T19:31:23.842Z,6.78
2023-01-25T19:34:02.689Z,6.80
2023-01-25T19:36:31.218Z,6.84
2023-01-25T19:38:57.902Z,6.78
2023-01-25T19:41:27.190Z,6.77
2023-01-25T19:43:58.548Z,6.77
2023-01-25T19:46:36.115Z,6.81
2023-01-25T19:49:05.452Z,6.84
2023-01-25T19:51:37.038Z,6.85
2023-01-25T19:54:06.612Z,6.88
2023-01-25T19:56:40.667Z,6.91
2023-01-25T19:59:19.261Z,6.92
2023-01-25T20:01:46.454Z,6.98
2023-01-25T20:04:16.073Z,6.95
2023-01-25T20:06:43.017Z,6.87
2023-01-25T20:09:13.483Z,6.87
2023-01-25T20:11:40.943Z,6.87
2023-01-25T20:14:08.161Z,6.87
2023-01-25T20:16:35.587Z,6.91
2023-01-25T20:19:03.267Z,6.91
2023-01-25T20:21:31.424Z,6.91
2023-01-25T20:24:02.580Z,6.92
2023-01-25T20:26:32.597Z,6.98
2023-01-25T20:29:00.069Z,6.96
2023-01-25T20:31:29.313Z,6.99
2023-01-25T20:34:01.137Z,7.04
2023-01-25T20:36:28.839Z,7.02
2023-01-25T20:38:56.377Z,7.02
2023-01-25T20:41:23.262Z,7.01
2023-01-25T20:43:52.204Z,6.98
2023-01-25T20:46:21.219Z,6.96
2023-01-25T20:48:48.023Z,6.95
2023-01-25T20:51:17.112Z,6.98
2023-01-25T20:53:45.428Z,6.98
2023-01-25T20:56:13.882Z,6.96
2023-01-25T20:58:41.446Z,7.02
2023-01-25T21:01:17.460Z,7.04
2023-01-25T21:03:44.210Z,7.02
2023-01-25T21:06:12.155Z,7.01
2023-01-25T21:08:39.102Z,6.95
2023-01-25T21:11:06.566Z,6.96
2023-01-25T21:13:33.219Z,6.96
2023-01-25T21:16:10.300Z,6.95
2023-01-25T21:18:42.144Z,6.95
2023-01-25T21:21:12.979Z,6.98
2023-01-25T21:23:42.412Z,6.98
2023-01-25T21:26:13.997Z,6.99
2023-01-25T21:28:40.779Z,6.98
2023-01-25T21:31:12.204Z,6.94
2023-01-25T21:33:39.736Z,6.94
2023-01-25T21:36:08.658Z,6.96
2023-01-25T21:38:36.323Z,6.96
2023-01-25T21:41:04.536Z,6.95
2023-01-25T21:43:52.606Z,6.98
2023-01-25T21:46:25.634Z,6.96
2023-01-25T21:49:15.459Z,6.98
2023-01-25T21:51:51.205Z,6.98
2023-01-25T21:54:37.227Z,6.96
2023-01-25T21:57:08.924Z,6.95
2023-01-25T21:59:36.633Z,6.98
2023-01-25T22:02:04.549Z,6.98
2023-01-25T22:04:36.050Z,7.01
2023-01-25T22:07:03.542Z,6.96
2023-01-25T22:09:30.181Z,6.98
2023-01-25T22:11:56.835Z,6.92
2023-01-25T22:14:23.545Z,6.94
2023-01-25T22:16:53.185Z,6.92
2023-01-25T22:19:20.549Z,6.88
2023-01-25T22:21:47.156Z,6.91
2023-01-25T22:24:14.416Z,6.92
2023-01-25T22:26:57.985Z,6.94
2023-01-25T22:29:25.405Z,6.89
2023-01-25T22:31:52.158Z,6.88
2023-01-25T22:34:18.825Z,6.81
2023-01-25T22:36:45.405Z,6.71
2023-01-25T22:39:15.276Z,6.78
2023-01-25T22:41:42.590Z,6.80
2023-01-25T22:44:09.979Z,6.81
2023-01-25T22:46:37.105Z,6.81
2023-01-25T22:49:04.803Z,6.83
2023-01-25T22:51:31.782Z,6.84
2023-01-25T22:53:59.188Z,6.87
2023-01-25T22:56:32.065Z,6.83
2023-01-25T22:58:59.681Z,6.83
2023-01-25T23:01:32.157Z,6.85
2023-01-25T23:03:59.568Z,6.75
2023-01-25T23:06:28.502Z,6.75
2023-01-25T23:08:56.930Z,6.75
2023-01-25T23:11:24.751Z,6.74
2023-01-25T23:14:11.371Z,6.77
2023-01-25T23:16:37.951Z,6.77
2023-01-25T23:19:05.311Z,6.73
2023-01-25T23:21:32.527Z,6.77
2023-01-25T23:24:01.087Z,6.80
2023-01-25T23:26:29.820Z,6.83
2023-01-25T23:28:58.003Z,6.77
2023-01-25T23:31:26.212Z,6.77
2023-01-25T23:33:58.792Z,6.81
2023-01-25T23:36:30.595Z,6.81
2023-01-25T23:38:58.229Z,6.81
2023-01-25T23:41:27.438Z,6.81
2023-01-25T23:43:55.216Z,6.83
2023-01-25T23:46:23.176Z,6.87
2023-01-25T23:48:50.231Z,6.83
2023-01-25T23:51:17.749Z,6.87
2023-01-25T23:53:44.425Z,6.87
2023-01-25T23:56:14.806Z,6.83
2023-01-25T23:58:41.622Z,6.83
